createdAt,value
2023-03-25T00:00:51.141Z,91.10
2023-03-25T00:02:58.212Z,91.20
2023-03-25T00:05:05.765Z,91.20
2023-03-25T00:07:13.248Z,91.30
2023-03-25T00:09:20.381Z,91.40
2023-03-25T00:11:27.615Z,93.40
2023-03-25T00:13:36.040Z,92.80
2023-03-25T00:15:47.265Z,92.40
2023-03-25T00:17:54.577Z,92.70
2023-03-25T00:20:01.565Z,92.80
2023-03-25T00:22:08.794Z,92.60
2023-03-25T00:24:18.860Z,92.50
2023-03-25T00:26:26.075Z,92.50
2023-03-25T00:28:35.375Z,92.40
2023-03-25T00:30:45.074Z,92.30
2023-03-25T00:32:53.723Z,92.10
2023-03-25T00:35:00.951Z,91.40
2023-03-25T00:37:07.923Z,90.60
2023-03-25T00:39:15.563Z,89.80
2023-03-25T00:41:23.958Z,89.00
2023-03-25T00:43:31.156Z,88.10
2023-03-25T00:45:38.234Z,87.10
2023-03-25T00:47:47.344Z,86.30
2023-03-25T00:49:54.389Z,85.50
2023-03-25T00:52:01.571Z,85.00
2023-03-25T00:54:09.369Z,84.60
2023-03-25T00:56:17.060Z,83.80
2023-03-25T00:58:24.093Z,82.80
2023-03-25T01:00:31.441Z,81.90
2023-03-25T01:02:40.404Z,81.00
2023-03-25T01:04:50.682Z,80.40
2023-03-25T01:06:57.684Z,80.20
2023-03-25T01:09:07.480Z,79.80
2023-03-25T01:11:22.595Z,78.90
2023-03-25T01:13:30.294Z,78.00
2023-03-25T01:15:37.345Z,77.80
2023-03-25T01:17:45.078Z,77.30
2023-03-25T01:19:53.977Z,73.10
2023-03-25T01:22:01.629Z,73.40
2023-03-25T01:24:09.930Z,72.70
2023-03-25T01:26:17.314Z,71.80
2023-03-25T01:28:24.245Z,71.00
2023-03-25T01:30:31.523Z,71.00
2023-03-25T01:32:38.615Z,70.50
2023-03-25T01:34:45.886Z,69.30
2023-03-25T01:36:56.195Z,68.20
2023-03-25T01:39:06.654Z,67.20
2023-03-25T01:41:14.708Z,64.90
2023-03-25T01:43:21.939Z,65.00
2023-03-25T01:45:31.731Z,63.60
2023-03-25T01:47:38.909Z,64.10
2023-03-25T01:49:49.115Z,65.00
2023-03-25T01:52:01.418Z,63.60
2023-03-25T01:54:09.732Z,64.00
2023-03-25T01:56:20.599Z,63.40
2023-03-25T01:58:29.908Z,62.60
2023-03-25T02:00:36.965Z,62.60
2023-03-25T02:02:44.848Z,62.00
2023-03-25T02:04:59.941Z,60.80
2023-03-25T02:07:10.163Z,60.70
2023-03-25T02:09:20.947Z,59.90
2023-03-25T02:11:30.325Z,60.20
2023-03-25T02:13:38.172Z,59.60
2023-03-25T02:16:11.441Z,59.90
2023-03-25T02:18:29.598Z,59.70
2023-03-25T02:21:09.240Z,60.40
2023-03-25T02:23:43.151Z,59.30
2023-03-25T02:26:23.099Z,58.50
2023-03-25T02:28:38.009Z,59.40
2023-03-25T02:31:21.112Z,59.80
2023-03-25T02:33:44.295Z,59.00
2023-03-25T02:36:25.624Z,57.90
2023-03-25T02:38:42.944Z,57.30
2023-03-25T02:40:56.679Z,55.80
2023-03-25T02:43:08.065Z,56.60
2023-03-25T02:45:18.737Z,57.20
2023-03-25T02:47:28.398Z,57.30
2023-03-25T02:49:38.667Z,55.00
2023-03-25T02:51:51.473Z,55.10
2023-03-25T02:54:03.073Z,54.50
2023-03-25T02:56:13.769Z,54.60
2023-03-25T02:58:23.009Z,55.10
2023-03-25T03:00:32.353Z,54.90
2023-03-25T03:02:40.237Z,54.90
2023-03-25T03:04:52.080Z,54.70
2023-03-25T03:07:00.389Z,53.00
2023-03-25T03:09:26.515Z,53.60
2023-03-25T03:11:36.768Z,51.60
2023-03-25T03:14:00.539Z,52.70
2023-03-25T03:16:16.285Z,50.40
2023-03-25T03:18:35.409Z,50.80
2023-03-25T03:20:51.113Z,50.50
2023-03-25T03:23:07.987Z,50.70
2023-03-25T03:25:29.643Z,50.20
2023-03-25T03:27:42.000Z,48.10
2023-03-25T03:29:52.106Z,48.90
2023-03-25T03:32:06.347Z,49.90
2023-03-25T03:34:18.186Z,50.00
2023-03-25T03:36:31.256Z,50.30
2023-03-25T03:38:43.304Z,49.60
2023-03-25T03:40:56.115Z,48.30
2023-03-25T03:43:06.685Z,49.10
2023-03-25T03:45:19.492Z,49.20
2023-03-25T03:47:30.391Z,47.70
2023-03-25T03:49:41.738Z,46.80
2023-03-25T03:51:53.665Z,46.60
2023-03-25T03:54:05.019Z,47.20
2023-03-25T03:56:15.520Z,47.80
2023-03-25T03:58:29.361Z,46.40
2023-03-25T04:00:41.504Z,47.80
2023-03-25T04:02:53.091Z,46.80
2023-03-25T04:05:01.653Z,47.60
2023-03-25T04:07:15.646Z,47.50
2023-03-25T04:09:29.790Z,47.30
2023-03-25T04:11:44.348Z,44.60
2023-03-25T04:13:55.212Z,45.00
2023-03-25T04:16:04.207Z,46.00
2023-03-25T04:18:11.571Z,46.60
2023-03-25T04:20:24.695Z,46.50
2023-03-25T04:22:31.874Z,45.30
2023-03-25T04:24:42.639Z,45.10
2023-03-25T04:26:51.360Z,45.10
2023-03-25T04:29:00.655Z,45.20
2023-03-25T04:31:09.156Z,45.90
2023-03-25T04:33:16.751Z,46.60
2023-03-25T04:35:24.435Z,47.00
2023-03-25T04:37:34.897Z,48.40
2023-03-25T04:39:41.975Z,48.30
2023-03-25T04:41:50.838Z,47.90
2023-03-25T04:43:57.822Z,46.40
2023-03-25T04:46:04.936Z,45.70
2023-03-25T04:48:23.245Z,46.00
2023-03-25T04:50:32.729Z,45.70
2023-03-25T04:52:39.761Z,46.00
2023-03-25T04:54:47.574Z,45.80
2023-03-25T04:56:56.572Z,45.30
2023-03-25T04:59:04.119Z,42.60
2023-03-25T05:01:12.464Z,43.70
2023-03-25T05:03:24.997Z,43.50
2023-03-25T05:05:31.925Z,43.60
2023-03-25T05:07:39.038Z,42.20
2023-03-25T05:09:45.874Z,41.80
2023-03-25T05:11:57.036Z,42.40
2023-03-25T05:14:04.273Z,42.80
2023-03-25T05:16:12.131Z,43.10
2023-03-25T05:18:19.960Z,41.20
2023-03-25T05:20:27.142Z,42.80
2023-03-25T05:22:34.175Z,43.20
2023-03-25T05:24:46.116Z,42.90
2023-03-25T05:26:53.040Z,42.30
2023-03-25T05:29:02.579Z,42.40
2023-03-25T05:31:10.831Z,43.00
2023-03-25T05:33:20.421Z,43.30
2023-03-25T05:35:27.552Z,43.30
2023-03-25T05:37:35.055Z,43.60
2023-03-25T05:39:43.110Z,43.70
2023-03-25T05:41:52.064Z,43.50
2023-03-25T05:44:01.475Z,43.20
2023-03-25T05:46:09.344Z,43.00
2023-03-25T05:48:16.307Z,41.20
2023-03-25T05:50:24.221Z,41.40
2023-03-25T05:52:30.986Z,42.40
2023-03-25T05:54:43.090Z,42.90
2023-03-25T05:56:50.364Z,43.60
2023-03-25T05:58:58.529Z,43.20
2023-03-25T06:01:12.382Z,43.10
2023-03-25T06:03:27.238Z,42.70
2023-03-25T06:05:34.831Z,42.30
2023-03-25T06:07:43.744Z,42.10
2023-03-25T06:09:51.079Z,41.50
2023-03-25T06:11:58.414Z,41.60
2023-03-25T06:14:05.650Z,41.70
2023-03-25T06:16:14.568Z,41.70
2023-03-25T06:18:23.596Z,41.80
2023-03-25T06:20:31.290Z,42.20
2023-03-25T06:22:40.577Z,41.90
2023-03-25T06:24:48.366Z,41.80
2023-03-25T06:26:55.486Z,42.10
2023-03-25T06:29:02.545Z,42.30
2023-03-25T06:31:17.915Z,42.40
2023-03-25T06:33:42.919Z,42.40
2023-03-25T06:35:54.731Z,42.00
2023-03-25T06:38:02.302Z,41.90
2023-03-25T06:40:19.980Z,40.80
2023-03-25T06:42:27.350Z,41.20
2023-03-25T06:45:00.755Z,41.40
2023-03-25T06:47:20.636Z,41.70
2023-03-25T06:49:30.777Z,39.60
2023-03-25T06:51:39.589Z,40.10
2023-03-25T06:53:46.698Z,40.20
2023-03-25T06:55:54.110Z,40.30
2023-03-25T06:58:01.240Z,40.50
2023-03-25T07:00:09.747Z,40.90
2023-03-25T07:02:19.030Z,40.80
2023-03-25T07:04:26.314Z,39.00
2023-03-25T07:06:34.214Z,40.00
2023-03-25T07:08:41.600Z,40.40
2023-03-25T07:10:48.731Z,40.60
2023-03-25T07:12:56.065Z,40.60
2023-03-25T07:15:03.509Z,40.40
2023-03-25T07:17:13.348Z,40.70
2023-03-25T07:19:22.178Z,40.30
2023-03-25T07:21:29.914Z,40.00
2023-03-25T07:23:36.840Z,40.40
2023-03-25T07:25:43.767Z,40.30
2023-03-25T07:27:51.000Z,40.10
2023-03-25T07:29:59.254Z,40.20
2023-03-25T07:32:06.541Z,39.70
2023-03-25T07:34:13.621Z,39.40
2023-03-25T07:36:23.061Z,39.40
2023-03-25T07:38:30.131Z,39.30
2023-03-25T07:40:37.628Z,39.30
2023-03-25T07:42:44.665Z,39.30
2023-03-25T07:44:56.284Z,38.80
2023-03-25T07:47:03.370Z,38.80
2023-03-25T07:49:10.903Z,39.00
2023-03-25T07:51:17.934Z,38.60
2023-03-25T07:53:27.113Z,38.20
2023-03-25T07:55:34.149Z,37.80
2023-03-25T07:57:42.006Z,37.80
2023-03-25T07:59:49.629Z,38.10
2023-03-25T08:01:56.799Z,37.90
2023-03-25T08:04:03.996Z,37.80
2023-03-25T08:06:12.145Z,37.40
2023-03-25T08:08:19.332Z,37.20
2023-03-25T08:10:28.249Z,37.00
2023-03-25T08:12:35.275Z,36.80
2023-03-25T08:14:42.661Z,36.80
2023-03-25T08:16:50.107Z,36.60
2023-03-25T08:18:57.433Z,36.40
2023-03-25T08:21:04.306Z,36.60
2023-03-25T08:23:12.038Z,37.10
2023-03-25T08:25:18.975Z,36.60
2023-03-25T08:27:28.466Z,36.20
2023-03-25T08:29:36.291Z,35.80
2023-03-25T08:31:47.699Z,35.90
2023-03-25T08:33:54.653Z,36.00
2023-03-25T08:36:02.151Z,35.50
2023-03-25T08:38:09.335Z,35.30
2023-03-25T08:40:18.052Z,35.20
2023-03-25T08:42:26.770Z,35.10
2023-03-25T08:44:33.927Z,35.10
2023-03-25T08:46:41.389Z,35.30
2023-03-25T08:48:50.258Z,35.40
2023-03-25T08:50:59.748Z,35.80
2023-03-25T08:53:07.203Z,36.10
2023-03-25T08:55:17.233Z,35.80
2023-03-25T08:57:24.571Z,35.60
2023-03-25T08:59:33.443Z,35.50
2023-03-25T09:01:41.117Z,35.30
2023-03-25T09:03:48.011Z,35.30
2023-03-25T09:05:55.603Z,35.30
2023-03-25T09:08:03.090Z,35.50
2023-03-25T09:10:11.894Z,35.40
2023-03-25T09:12:19.407Z,35.50
2023-03-25T09:14:26.700Z,35.80
2023-03-25T09:16:36.063Z,35.90
2023-03-25T09:18:43.554Z,35.60
2023-03-25T09:20:50.379Z,35.70
2023-03-25T09:22:57.560Z,35.50
2023-03-25T09:25:04.688Z,35.60
2023-03-25T09:27:12.075Z,35.70
2023-03-25T09:29:19.717Z,35.80
2023-03-25T09:31:27.246Z,35.80
2023-03-25T09:33:36.028Z,35.90
2023-03-25T09:35:44.271Z,36.20
2023-03-25T09:37:51.872Z,36.10
2023-03-25T09:40:00.167Z,36.30
2023-03-25T09:42:32.821Z,36.30
2023-03-25T09:44:47.926Z,36.20
2023-03-25T09:46:55.229Z,36.60
2023-03-25T09:49:05.260Z,36.80
2023-03-25T09:51:18.125Z,36.30
2023-03-25T09:53:34.061Z,36.10
2023-03-25T09:55:45.650Z,35.80
2023-03-25T09:57:57.769Z,35.90
2023-03-25T10:00:07.897Z,36.10
2023-03-25T10:02:26.760Z,36.30
2023-03-25T10:04:59.175Z,36.50
2023-03-25T10:07:16.547Z,37.10
2023-03-25T10:09:37.860Z,37.40
2023-03-25T10:11:53.235Z,37.30
2023-03-25T10:14:05.552Z,37.50
2023-03-25T10:16:22.328Z,37.60
2023-03-25T10:18:55.954Z,37.60
2023-03-25T10:21:10.140Z,37.50
2023-03-25T10:23:27.151Z,38.00
2023-03-25T10:25:39.302Z,38.00
2023-03-25T10:27:48.222Z,38.50
2023-03-25T10:29:58.834Z,38.90
2023-03-25T10:32:14.464Z,39.20
2023-03-25T10:34:23.372Z,39.30
2023-03-25T10:36:36.764Z,39.40
2023-03-25T10:38:46.197Z,39.40
2023-03-25T10:40:55.376Z,39.50
2023-03-25T10:43:21.656Z,39.30
2023-03-25T10:45:29.196Z,38.90
2023-03-25T10:47:41.958Z,39.20
2023-03-25T10:49:50.060Z,39.30
2023-03-25T10:52:00.427Z,39.50
2023-03-25T10:54:08.315Z,39.80
2023-03-25T10:56:18.872Z,39.90
2023-03-25T10:58:27.292Z,39.90
2023-03-25T11:00:35.237Z,39.90
2023-03-25T11:02:42.603Z,39.80
2023-03-25T11:04:53.898Z,39.80
2023-03-25T11:07:06.596Z,39.70
2023-03-25T11:09:27.819Z,39.90
2023-03-25T11:11:38.875Z,40.00
2023-03-25T11:13:46.134Z,40.20
2023-03-25T11:15:55.458Z,40.30
2023-03-25T11:18:05.644Z,40.60
2023-03-25T11:20:23.082Z,40.90
2023-03-25T11:22:34.771Z,41.40
2023-03-25T11:24:46.707Z,41.80
2023-03-25T11:26:54.976Z,42.10
2023-03-25T11:29:08.853Z,42.80
2023-03-25T11:31:18.743Z,43.00
2023-03-25T11:33:29.823Z,44.20
2023-03-25T11:35:41.493Z,44.40
2023-03-25T11:37:52.025Z,45.00
2023-03-25T11:39:59.866Z,45.90
2023-03-25T11:42:18.468Z,46.30
2023-03-25T11:44:30.160Z,46.50
2023-03-25T11:46:44.566Z,46.30
2023-03-25T11:48:52.863Z,46.60
2023-03-25T11:51:03.221Z,46.90
2023-03-25T11:53:18.234Z,47.10
2023-03-25T11:55:29.513Z,47.30
2023-03-25T11:57:39.258Z,47.80
2023-03-25T11:59:49.671Z,49.40
2023-03-25T12:02:05.600Z,47.80
2023-03-25T12:04:17.345Z,48.80
2023-03-25T12:06:25.416Z,48.80
2023-03-25T12:08:45.861Z,49.50
2023-03-25T12:10:58.800Z,50.80
2023-03-25T12:13:14.225Z,50.90
2023-03-25T12:15:30.366Z,50.90
2023-03-25T12:17:49.918Z,50.20
2023-03-25T12:20:09.256Z,50.10
2023-03-25T12:22:24.985Z,50.80
2023-03-25T12:24:49.639Z,51.70
2023-03-25T12:27:11.109Z,51.40
2023-03-25T12:29:26.366Z,51.40
2023-03-25T12:31:44.895Z,52.00
2023-03-25T12:34:06.488Z,51.80
2023-03-25T12:36:27.083Z,52.30
2023-03-25T12:38:45.731Z,52.80
2023-03-25T12:41:10.986Z,53.20
2023-03-25T12:43:23.543Z,54.10
2023-03-25T12:45:51.068Z,53.60
2023-03-25T12:48:04.074Z,53.40
2023-03-25T12:50:36.699Z,53.70
2023-03-25T12:52:52.947Z,54.70
2023-03-25T12:55:17.122Z,55.10
2023-03-25T12:57:39.512Z,55.40
2023-03-25T13:00:12.907Z,55.10
2023-03-25T13:02:36.636Z,55.10
2023-03-25T13:05:04.390Z,54.70
2023-03-25T13:07:15.310Z,55.80
2023-03-25T13:09:28.382Z,55.60
2023-03-25T13:11:41.139Z,55.60
2023-03-25T13:13:52.775Z,55.70
2023-03-25T13:16:05.914Z,55.80
2023-03-25T13:18:18.305Z,55.80
2023-03-25T13:20:28.249Z,56.00
2023-03-25T13:22:40.445Z,56.20
2023-03-25T13:24:52.408Z,56.10
2023-03-25T13:27:02.693Z,56.30
2023-03-25T13:29:15.404Z,56.50
2023-03-25T13:31:25.647Z,56.70
2023-03-25T13:33:37.859Z,56.40
2023-03-25T13:35:49.795Z,56.50
2023-03-25T13:37:57.482Z,57.60
2023-03-25T13:40:20.119Z,60.10
2023-03-25T13:42:35.360Z,58.30
2023-03-25T13:44:48.019Z,58.10
2023-03-25T13:46:59.294Z,58.00
2023-03-25T13:49:09.856Z,58.80
2023-03-25T13:51:17.190Z,58.80
2023-03-25T13:53:28.621Z,58.30
2023-03-25T13:55:36.779Z,58.20
2023-03-25T13:58:29.376Z,61.00
2023-03-25T14:01:04.018Z,61.90
2023-03-25T14:03:43.846Z,60.50
2023-03-25T14:06:03.722Z,60.70
2023-03-25T14:08:52.848Z,60.80
2023-03-25T14:11:13.893Z,60.00
2023-03-25T14:13:25.429Z,59.80
2023-03-25T14:15:36.044Z,59.20
2023-03-25T14:17:47.845Z,59.80
2023-03-25T14:19:58.508Z,60.10
2023-03-25T14:22:11.668Z,59.50
2023-03-25T14:24:23.355Z,58.20
2023-03-25T14:26:30.893Z,58.30
2023-03-25T14:28:41.816Z,58.30
2023-03-25T14:31:08.784Z,58.00
2023-03-25T14:33:17.936Z,58.00
2023-03-25T14:35:53.268Z,57.60
2023-03-25T14:38:00.614Z,57.90
2023-03-25T14:41:01.362Z,57.80
2023-03-25T14:43:24.259Z,57.00
2023-03-25T14:46:03.532Z,56.20
2023-03-25T14:48:26.162Z,55.80
2023-03-25T14:50:37.475Z,55.90
2023-03-25T14:52:47.003Z,56.10
2023-03-25T14:54:57.711Z,55.90
2023-03-25T14:57:09.667Z,56.10
2023-03-25T14:59:20.272Z,55.80
2023-03-25T15:01:33.348Z,56.00
2023-03-25T15:03:45.485Z,56.30
2023-03-25T15:06:00.781Z,55.80
2023-03-25T15:08:17.845Z,55.20
2023-03-25T15:10:30.630Z,55.00
2023-03-25T15:12:41.805Z,54.90
2023-03-25T15:14:51.959Z,55.10
2023-03-25T15:17:06.055Z,55.40
2023-03-25T15:19:16.816Z,55.50
2023-03-25T15:21:27.837Z,56.00
2023-03-25T15:23:43.673Z,56.10
2023-03-25T15:25:52.347Z,56.60
2023-03-25T15:28:17.376Z,56.50
2023-03-25T15:31:01.872Z,57.10
2023-03-25T15:33:22.898Z,57.70
2023-03-25T15:35:59.894Z,57.40
2023-03-25T15:38:42.807Z,57.60
2023-03-25T15:41:04.366Z,57.80
2023-03-25T15:44:00.869Z,57.80
2023-03-25T15:46:37.475Z,58.80
2023-03-25T15:49:24.261Z,59.80
2023-03-25T15:51:48.265Z,59.80
2023-03-25T15:54:06.816Z,59.60
2023-03-25T15:56:16.849Z,60.20
2023-03-25T15:58:31.055Z,60.80
2023-03-25T16:00:41.679Z,61.80
2023-03-25T16:02:54.047Z,62.10
2023-03-25T16:05:02.279Z,62.20
2023-03-25T16:07:13.250Z,63.10
2023-03-25T16:09:23.815Z,62.80
2023-03-25T16:11:32.379Z,62.10
2023-03-25T16:13:39.659Z,62.70
2023-03-25T16:15:48.480Z,63.40
2023-03-25T16:17:56.355Z,63.30
2023-03-25T16:20:07.142Z,62.70
2023-03-25T16:22:22.516Z,62.60
2023-03-25T16:24:34.922Z,63.90
2023-03-25T16:26:45.276Z,66.00
2023-03-25T16:28:52.150Z,68.60
2023-03-25T16:30:59.816Z,68.00
2023-03-25T16:33:18.013Z,67.80
2023-03-25T16:35:27.847Z,67.90
2023-03-25T16:37:46.066Z,67.60
2023-03-25T16:39:56.489Z,67.80
2023-03-25T16:42:07.456Z,67.60
2023-03-25T16:44:18.820Z,67.60
2023-03-25T16:46:26.036Z,68.60
2023-03-25T16:48:36.407Z,69.10
2023-03-25T16:50:44.413Z,68.80
2023-03-25T16:52:56.835Z,68.00
2023-03-25T16:55:32.514Z,66.80
2023-03-25T16:57:43.440Z,67.50
2023-03-25T16:59:53.332Z,67.80
2023-03-25T17:02:01.941Z,68.40
2023-03-25T17:04:17.943Z,68.10
2023-03-25T17:06:28.748Z,67.50
2023-03-25T17:08:38.134Z,66.90
2023-03-25T17:10:51.601Z,66.10
2023-03-25T17:13:02.377Z,65.80
2023-03-25T17:15:10.994Z,65.90
2023-03-25T17:17:31.964Z,66.90
2023-03-25T17:19:50.880Z,68.00
2023-03-25T17:22:14.008Z,67.60
2023-03-25T17:24:28.412Z,67.20
2023-03-25T17:26:37.794Z,67.50
2023-03-25T17:28:46.104Z,67.50
2023-03-25T17:30:53.479Z,67.60
2023-03-25T17:33:13.420Z,67.90
2023-03-25T17:35:28.450Z,67.50
2023-03-25T17:37:36.437Z,67.10
2023-03-25T17:39:51.657Z,66.50
2023-03-25T17:42:02.574Z,66.30
2023-03-25T17:44:10.267Z,66.20
2023-03-25T17:46:21.959Z,66.20
2023-03-25T17:48:28.879Z,66.60
2023-03-25T17:50:36.165Z,66.70
2023-03-25T17:52:43.501Z,67.30
2023-03-25T17:54:52.678Z,67.10
2023-03-25T17:56:59.932Z,66.70
2023-03-25T17:59:10.122Z,66.70
2023-03-25T18:01:17.977Z,66.70
2023-03-25T18:03:27.191Z,66.80
2023-03-25T18:05:34.058Z,66.70
2023-03-25T18:07:41.248Z,66.60
2023-03-25T18:09:48.684Z,66.40
2023-03-25T18:12:00.268Z,66.20
2023-03-25T18:14:07.300Z,66.20
2023-03-25T18:16:14.551Z,66.20
2023-03-25T18:18:23.075Z,66.20
2023-03-25T18:20:32.990Z,66.20
2023-03-25T18:22:40.069Z,66.40
2023-03-25T18:24:47.392Z,66.60
2023-03-25T18:26:54.481Z,66.70
2023-03-25T18:29:05.914Z,66.60
2023-03-25T18:31:17.748Z,66.50
2023-03-25T18:33:26.066Z,66.30
2023-03-25T18:35:32.991Z,66.00
2023-03-25T18:37:40.073Z,65.90
2023-03-25T18:39:46.894Z,66.20
2023-03-25T18:41:54.492Z,66.50
2023-03-25T18:44:03.208Z,67.00
2023-03-25T18:46:10.818Z,67.10
2023-03-25T18:48:21.818Z,67.20
2023-03-25T18:50:33.457Z,67.30
2023-03-25T18:52:40.275Z,67.20
2023-03-25T18:54:47.558Z,67.00
2023-03-25T18:56:54.606Z,66.90
2023-03-25T18:59:03.817Z,67.20
2023-03-25T19:01:11.122Z,67.80
2023-03-25T19:03:18.532Z,68.10
2023-03-25T19:05:26.999Z,68.30
2023-03-25T19:07:34.234Z,68.30
2023-03-25T19:09:41.522Z,68.70
2023-03-25T19:11:49.106Z,68.80
2023-03-25T19:13:56.653Z,69.30
2023-03-25T19:16:05.670Z,69.50
2023-03-25T19:18:19.615Z,69.60
2023-03-25T19:20:28.432Z,69.50
2023-03-25T19:22:35.560Z,69.40
2023-03-25T19:24:43.014Z,69.70
2023-03-25T19:26:49.926Z,70.00
2023-03-25T19:28:57.102Z,70.10
2023-03-25T19:31:06.375Z,70.50
2023-03-25T19:33:14.077Z,70.50
2023-03-25T19:35:22.337Z,70.70
2023-03-25T19:37:36.171Z,71.10
2023-03-25T19:39:43.659Z,71.40
2023-03-25T19:41:52.326Z,71.90
2023-03-25T19:43:59.256Z,72.60
2023-03-25T19:46:09.529Z,72.90
2023-03-25T19:48:16.642Z,73.30
2023-03-25T19:50:25.970Z,73.50
2023-03-25T19:52:33.258Z,73.70
2023-03-25T19:54:40.231Z,73.80
2023-03-25T19:56:47.500Z,73.80
2023-03-25T19:58:54.489Z,74.90
2023-03-25T20:01:02.080Z,75.00
2023-03-25T20:03:11.077Z,74.90
2023-03-25T20:05:19.518Z,75.20
2023-03-25T20:07:27.263Z,75.30
2023-03-25T20:09:34.498Z,75.30
2023-03-25T20:11:41.574Z,75.60
2023-03-25T20:13:50.245Z,75.50
2023-03-25T20:15:57.199Z,75.80
2023-03-25T20:18:04.698Z,75.90
2023-03-25T20:20:15.126Z,76.10
2023-03-25T20:22:24.936Z,76.00
2023-03-25T20:24:32.101Z,76.10
2023-03-25T20:26:39.581Z,76.20
2023-03-25T20:28:46.608Z,76.30
2023-03-25T20:30:54.046Z,76.20
2023-03-25T20:33:01.140Z,76.00
2023-03-25T20:35:10.048Z,75.60
2023-03-25T20:37:18.922Z,75.50
2023-03-25T20:39:26.204Z,75.30
2023-03-25T20:41:33.488Z,75.00
2023-03-25T20:43:40.773Z,74.70
2023-03-25T20:45:47.698Z,74.50
2023-03-25T20:47:55.122Z,74.30
2023-03-25T20:50:02.118Z,74.30
2023-03-25T20:52:10.778Z,74.40
2023-03-25T20:54:19.649Z,74.50
2023-03-25T20:56:26.879Z,74.20
2023-03-25T20:58:34.472Z,73.70
2023-03-25T21:00:41.795Z,73.70
2023-03-25T21:02:48.867Z,74.10
2023-03-25T21:04:59.398Z,74.60
2023-03-25T21:07:08.421Z,74.70
2023-03-25T21:09:15.808Z,74.50
2023-03-25T21:11:24.436Z,73.70
2023-03-25T21:13:33.805Z,73.30
2023-03-25T21:15:42.115Z,73.70
2023-03-25T21:17:49.445Z,74.20
2023-03-25T21:19:56.425Z,74.40
2023-03-25T21:22:03.762Z,74.60
2023-03-25T21:24:11.300Z,75.30
2023-03-25T21:26:18.697Z,75.60
2023-03-25T21:28:27.302Z,75.80
2023-03-25T21:30:34.742Z,75.70
2023-03-25T21:32:41.928Z,75.80
2023-03-25T21:34:49.053Z,76.00
2023-03-25T21:36:56.591Z,76.00
2023-03-25T21:39:05.260Z,76.20
2023-03-25T21:41:12.645Z,75.90
2023-03-25T21:43:19.774Z,76.10
2023-03-25T21:45:34.715Z,76.10
2023-03-25T21:47:42.320Z,76.40
2023-03-25T21:49:50.383Z,77.00
2023-03-25T21:51:58.178Z,77.00
2023-03-25T21:54:05.307Z,77.10
2023-03-25T21:56:13.307Z,77.20
2023-03-25T21:58:20.796Z,77.30
2023-03-25T22:00:30.124Z,77.20
2023-03-25T22:02:37.631Z,77.60
2023-03-25T22:04:45.255Z,77.50
2023-03-25T22:06:52.185Z,77.40
2023-03-25T22:08:59.977Z,77.60
2023-03-25T22:11:08.901Z,77.90
2023-03-25T22:13:16.489Z,78.00
2023-03-25T22:15:23.516Z,78.10
2023-03-25T22:17:32.659Z,78.10
2023-03-25T22:19:39.623Z,78.30
2023-03-25T22:21:47.055Z,78.50
2023-03-25T22:23:56.907Z,78.70
2023-03-25T22:26:04.798Z,79.00
2023-03-25T22:28:11.781Z,79.30
2023-03-25T22:30:19.833Z,79.40
2023-03-25T22:32:28.087Z,79.50
2023-03-25T22:34:37.621Z,79.50
2023-03-25T22:36:50.920Z,79.40
2023-03-25T22:38:58.900Z,79.50
2023-03-25T22:41:10.181Z,79.70
2023-03-25T22:43:17.421Z,80.40
2023-03-25T22:45:24.384Z,80.40
2023-03-25T22:47:31.665Z,80.70
2023-03-25T22:49:40.640Z,80.70
2023-03-25T22:51:48.127Z,80.70
2023-03-25T22:53:55.371Z,80.80
2023-03-25T22:56:02.616Z,80.90
2023-03-25T22:58:09.518Z,80.80
2023-03-25T23:00:18.501Z,81.00
2023-03-25T23:02:25.661Z,80.90
2023-03-25T23:04:32.966Z,81.10
2023-03-25T23:06:42.763Z,81.60
2023-03-25T23:08:51.531Z,81.70
2023-03-25T23:10:58.968Z,81.90
2023-03-25T23:13:06.201Z,82.00
2023-03-25T23:15:15.024Z,81.90
2023-03-25T23:17:22.358Z,81.80
2023-03-25T23:19:29.442Z,81.70
2023-03-25T23:21:37.438Z,81.60
2023-03-25T23:23:53.375Z,82.00
2023-03-25T23:26:08.605Z,82.10
2023-03-25T23:28:19.311Z,82.30
2023-03-25T23:30:26.291Z,82.40
2023-03-25T23:32:35.934Z,82.40
2023-03-25T23:34:42.868Z,82.40
2023-03-25T23:36:50.141Z,82.50
2023-03-25T23:38:59.783Z,82.50
2023-03-25T23:41:08.697Z,82.20
2023-03-25T23:43:15.623Z,81.80
2023-03-25T23:45:22.865Z,81.60
2023-03-25T23:47:30.100Z,81.20
2023-03-25T23:49:39.170Z,80.90
2023-03-25T23:51:47.077Z,80.80
2023-03-25T23:53:55.373Z,80.60
2023-03-25T23:56:04.496Z,80.50
2023-03-25T23:58:11.472Z,80.30
